sensor_id;sensor_type;location;lat;lon;timestamp;P1;durP1;ratioP1;P2;durP2;ratioP2
59960;SDS011;55902;-37.980;-63.602;2024-03-17T00:41:13;18.73;;;6.65;;
59960;SDS011;55902;-37.980;-63.602;2024-03-17T00:43:43;28.05;;;7.45;;
59960;SDS011;55902;-37.980;-63.602;2024-03-17T00:46:19;15.90;;;6.07;;
59960;SDS011;55902;-37.980;-63.602;2024-03-17T00:48:49;26.27;;;6.15;;
59960;SDS011;55902;-37.980;-63.602;2024-03-17T02:15:07;22.95;;;11.23;;
59960;SDS011;55902;-37.980;-63.602;2024-03-17T06:19:16;3.22;;;1.50;;
59960;SDS011;55902;-37.980;-63.602;2024-03-17T06:21:45;2.63;;;1.60;;
59960;SDS011;55902;-37.980;-63.602;2024-03-17T06:24:24;2.55;;;1.77;;
59960;SDS011;55902;-37.980;-63.602;2024-03-17T06:26:53;4.07;;;1.80;;
59960;SDS011;55902;-37.980;-63.602;2024-03-17T06:29:26;3.03;;;1.60;;
59960;SDS011;55902;-37.980;-63.602;2024-03-17T06:32:00;2.72;;;1.70;;
59960;SDS011;55902;-37.980;-63.602;2024-03-17T06:34:30;3.30;;;1.60;;
59960;SDS011;55902;-37.980;-63.602;2024-03-17T06:37:03;5.63;;;1.80;;
59960;SDS011;55902;-37.980;-63.602;2024-03-17T06:39:30;4.50;;;1.60;;
59960;SDS011;55902;-37.980;-63.602;2024-03-17T06:42:01;3.15;;;1.60;;
59960;SDS011;55902;-37.980;-63.602;2024-03-17T06:44:31;2.25;;;1.80;;
59960;SDS011;55902;-37.980;-63.602;2024-03-17T06:46:59;3.40;;;1.65;;
59960;SDS011;55902;-37.980;-63.602;2024-03-17T06:49:29;2.47;;;1.60;;
59960;SDS011;55902;-37.980;-63.602;2024-03-17T06:52:03;2.65;;;1.70;;
59960;SDS011;55902;-37.980;-63.602;2024-03-17T06:54:37;2.65;;;1.52;;
59960;SDS011;55902;-37.980;-63.602;2024-03-17T06:57:05;3.30;;;1.65;;
59960;SDS011;55902;-37.980;-63.602;2024-03-17T06:59:35;3.65;;;1.60;;
59960;SDS011;55902;-37.980;-63.602;2024-03-17T07:02:08;3.60;;;1.60;;
59960;SDS011;55902;-37.980;-63.602;2024-03-17T07:04:49;3.75;;;1.48;;
59960;SDS011;55902;-37.980;-63.602;2024-03-17T07:07:16;3.85;;;1.45;;
59960;SDS011;55902;-37.980;-63.602;2024-03-17T07:09:43;7.13;;;1.75;;
59960;SDS011;55902;-37.980;-63.602;2024-03-17T07:12:18;2.20;;;1.58;;
59960;SDS011;55902;-37.980;-63.602;2024-03-17T07:14:45;4.05;;;1.70;;
59960;SDS011;55902;-37.980;-63.602;2024-03-17T07:17:15;2.55;;;1.52;;
59960;SDS011;55902;-37.980;-63.602;2024-03-17T07:19:45;1.80;;;1.50;;
59960;SDS011;55902;-37.980;-63.602;2024-03-17T07:22:15;2.17;;;1.50;;
59960;SDS011;55902;-37.980;-63.602;2024-03-17T07:24:43;2.25;;;1.60;;
59960;SDS011;55902;-37.980;-63.602;2024-03-17T07:27:10;1.52;;;1.40;;
59960;SDS011;55902;-37.980;-63.602;2024-03-17T07:29:43;3.42;;;1.60;;
59960;SDS011;55902;-37.980;-63.602;2024-03-17T07:32:14;2.80;;;1.50;;
59960;SDS011;55902;-37.980;-63.602;2024-03-17T07:34:45;3.58;;;1.70;;
59960;SDS011;55902;-37.980;-63.602;2024-03-17T07:37:12;2.58;;;1.60;;
59960;SDS011;55902;-37.980;-63.602;2024-03-17T07:39:45;3.58;;;1.60;;
59960;SDS011;55902;-37.980;-63.602;2024-03-17T07:42:18;2.30;;;1.50;;
59960;SDS011;55902;-37.980;-63.602;2024-03-17T07:44:48;2.95;;;1.50;;
59960;SDS011;55902;-37.980;-63.602;2024-03-17T07:47:19;2.78;;;1.70;;
59960;SDS011;55902;-37.980;-63.602;2024-03-17T07:49:46;4.85;;;1.60;;
59960;SDS011;55902;-37.980;-63.602;2024-03-17T07:52:19;5.15;;;1.60;;
59960;SDS011;55902;-37.980;-63.602;2024-03-17T07:54:49;3.00;;;1.70;;
59960;SDS011;55902;-37.980;-63.602;2024-03-17T07:57:22;2.95;;;1.67;;
59960;SDS011;55902;-37.980;-63.602;2024-03-17T07:59:52;1.95;;;1.50;;
59960;SDS011;55902;-37.980;-63.602;2024-03-17T08:02:25;3.70;;;1.70;;
59960;SDS011;55902;-37.980;-63.602;2024-03-17T08:04:55;3.83;;;1.60;;
59960;SDS011;55902;-37.980;-63.602;2024-03-17T08:07:23;1.73;;;1.48;;
59960;SDS011;55902;-37.980;-63.602;2024-03-17T08:09:50;3.17;;;1.70;;
59960;SDS011;55902;-37.980;-63.602;2024-03-17T08:12:20;4.13;;;1.77;;
59960;SDS011;55902;-37.980;-63.602;2024-03-17T08:14:47;3.28;;;1.83;;
59960;SDS011;55902;-37.980;-63.602;2024-03-17T08:17:20;4.50;;;1.73;;
59960;SDS011;55902;-37.980;-63.602;2024-03-17T08:19:47;4.35;;;1.60;;
59960;SDS011;55902;-37.980;-63.602;2024-03-17T08:22:19;1.88;;;1.55;;
59960;SDS011;55902;-37.980;-63.602;2024-03-17T08:24:49;1.77;;;1.60;;
59960;SDS011;55902;-37.980;-63.602;2024-03-17T08:27:19;2.40;;;1.60;;
59960;SDS011;55902;-37.980;-63.602;2024-03-17T08:29:52;5.18;;;1.60;;
59960;SDS011;55902;-37.980;-63.602;2024-03-17T08:32:22;5.05;;;1.70;;
59960;SDS011;55902;-37.980;-63.602;2024-03-17T08:34:49;4.00;;;1.70;;
59960;SDS011;55902;-37.980;-63.602;2024-03-17T08:37:22;7.43;;;1.73;;
59960;SDS011;55902;-37.980;-63.602;2024-03-17T08:39:51;3.55;;;1.60;;
59960;SDS011;55902;-37.980;-63.602;2024-03-17T08:42:18;2.05;;;1.60;;
59960;SDS011;55902;-37.980;-63.602;2024-03-17T08:44:46;3.15;;;1.80;;
59960;SDS011;55902;-37.980;-63.602;2024-03-17T08:47:13;2.67;;;1.65;;
59960;SDS011;55902;-37.980;-63.602;2024-03-17T08:49:46;1.90;;;1.70;;
59960;SDS011;55902;-37.980;-63.602;2024-03-17T08:52:19;3.42;;;1.73;;
59960;SDS011;55902;-37.980;-63.602;2024-03-17T08:54:47;4.30;;;1.80;;
59960;SDS011;55902;-37.980;-63.602;2024-03-17T08:57:17;3.40;;;1.70;;
59960;SDS011;55902;-37.980;-63.602;2024-03-17T08:59:48;3.15;;;1.80;;
59960;SDS011;55902;-37.980;-63.602;2024-03-17T09:02:18;4.80;;;1.70;;
59960;SDS011;55902;-37.980;-63.602;2024-03-17T09:04:53;3.25;;;1.70;;
59960;SDS011;55902;-37.980;-63.602;2024-03-17T09:07:23;3.97;;;1.67;;
59960;SDS011;55902;-37.980;-63.602;2024-03-17T09:09:53;3.10;;;1.70;;
59960;SDS011;55902;-37.980;-63.602;2024-03-17T09:12:23;3.00;;;1.77;;
59960;SDS011;55902;-37.980;-63.602;2024-03-17T09:14:51;2.90;;;1.70;;
59960;SDS011;55902;-37.980;-63.602;2024-03-17T09:17:18;3.35;;;1.70;;
59960;SDS011;55902;-37.980;-63.602;2024-03-17T09:19:50;3.78;;;1.70;;
59960;SDS011;55902;-37.980;-63.602;2024-03-17T09:22:17;3.63;;;1.60;;
59960;SDS011;55902;-37.980;-63.602;2024-03-17T09:24:48;4.05;;;1.73;;
59960;SDS011;55902;-37.980;-63.602;2024-03-17T09:27:18;5.25;;;1.73;;
59960;SDS011;55902;-37.980;-63.602;2024-03-17T09:29:47;4.10;;;1.80;;
59960;SDS011;55902;-37.980;-63.602;2024-03-17T09:32:18;4.05;;;1.67;;
59960;SDS011;55902;-37.980;-63.602;2024-03-17T09:34:48;4.28;;;2.13;;
59960;SDS011;55902;-37.980;-63.602;2024-03-17T09:37:17;6.10;;;1.88;;
59960;SDS011;55902;-37.980;-63.602;2024-03-17T09:39:50;3.70;;;1.90;;
59960;SDS011;55902;-37.980;-63.602;2024-03-17T09:42:20;1.92;;;1.63;;
59960;SDS011;55902;-37.980;-63.602;2024-03-17T09:44:50;4.18;;;1.65;;
59960;SDS011;55902;-37.980;-63.602;2024-03-17T09:47:24;3.83;;;1.83;;
59960;SDS011;55902;-37.980;-63.602;2024-03-17T09:49:53;5.68;;;1.75;;
59960;SDS011;55902;-37.980;-63.602;2024-03-17T09:52:24;2.70;;;1.73;;
59960;SDS011;55902;-37.980;-63.602;2024-03-17T09:54:54;4.78;;;1.80;;
59960;SDS011;55902;-37.980;-63.602;2024-03-17T09:57:27;4.03;;;1.80;;
59960;SDS011;55902;-37.980;-63.602;2024-03-17T09:59:59;3.40;;;1.77;;
59960;SDS011;55902;-37.980;-63.602;2024-03-17T10:02:56;4.43;;;1.80;;
59960;SDS011;55902;-37.980;-63.602;2024-03-17T10:05:24;3.28;;;1.80;;
59960;SDS011;55902;-37.980;-63.602;2024-03-17T10:07:54;4.05;;;2.20;;
59960;SDS011;55902;-37.980;-63.602;2024-03-17T10:10:28;5.13;;;2.20;;
59960;SDS011;55902;-37.980;-63.602;2024-03-17T10:12:57;3.55;;;1.88;;
59960;SDS011;55902;-37.980;-63.602;2024-03-17T10:15:24;5.80;;;2.10;;
59960;SDS011;55902;-37.980;-63.602;2024-03-17T10:17:57;4.75;;;2.10;;
59960;SDS011;55902;-37.980;-63.602;2024-03-17T10:20:27;4.28;;;1.88;;
59960;SDS011;55902;-37.980;-63.602;2024-03-17T10:23:04;4.53;;;1.92;;
59960;SDS011;55902;-37.980;-63.602;2024-03-17T10:25:42;4.82;;;2.00;;
59960;SDS011;55902;-37.980;-63.602;2024-03-17T10:28:10;5.07;;;1.92;;
59960;SDS011;55902;-37.980;-63.602;2024-03-17T10:30:39;5.05;;;1.80;;
59960;SDS011;55902;-37.980;-63.602;2024-03-17T10:33:28;2.58;;;1.70;;
59960;SDS011;55902;-37.980;-63.602;2024-03-17T10:35:59;4.57;;;1.65;;
59960;SDS011;55902;-37.980;-63.602;2024-03-17T10:38:31;3.70;;;1.80;;
59960;SDS011;55902;-37.980;-63.602;2024-03-17T10:41:00;4.20;;;1.80;;
59960;SDS011;55902;-37.980;-63.602;2024-03-17T10:43:35;3.00;;;1.70;;
59960;SDS011;55902;-37.980;-63.602;2024-03-17T10:46:07;3.58;;;1.80;;
59960;SDS011;55902;-37.980;-63.602;2024-03-17T10:48:37;4.22;;;1.70;;
59960;SDS011;55902;-37.980;-63.602;2024-03-17T10:51:05;3.40;;;1.70;;
59960;SDS011;55902;-37.980;-63.602;2024-03-17T10:53:34;3.80;;;1.70;;
59960;SDS011;55902;-37.980;-63.602;2024-03-17T10:56:11;4.18;;;1.90;;
59960;SDS011;55902;-37.980;-63.602;2024-03-17T10:58:43;3.08;;;1.88;;
59960;SDS011;55902;-37.980;-63.602;2024-03-17T11:01:18;2.25;;;1.80;;
59960;SDS011;55902;-37.980;-63.602;2024-03-17T11:03:49;4.38;;;1.65;;
59960;SDS011;55902;-37.980;-63.602;2024-03-17T11:06:25;6.68;;;1.98;;
59960;SDS011;55902;-37.980;-63.602;2024-03-17T11:08:52;4.55;;;1.98;;
59960;SDS011;55902;-37.980;-63.602;2024-03-17T11:14:18;4.10;;;2.00;;
59960;SDS011;55902;-37.980;-63.602;2024-03-17T11:16:45;3.97;;;1.70;;
59960;SDS011;55902;-37.980;-63.602;2024-03-17T11:19:18;2.92;;;1.80;;
59960;SDS011;55902;-37.980;-63.602;2024-03-17T11:21:49;2.88;;;1.70;;
59960;SDS011;55902;-37.980;-63.602;2024-03-17T11:24:22;2.88;;;1.70;;
59960;SDS011;55902;-37.980;-63.602;2024-03-17T11:26:54;5.00;;;2.00;;
59960;SDS011;55902;-37.980;-63.602;2024-03-17T11:29:29;3.92;;;1.75;;
59960;SDS011;55902;-37.980;-63.602;2024-03-17T11:32:08;3.90;;;1.80;;
59960;SDS011;55902;-37.980;-63.602;2024-03-17T11:37:41;4.43;;;1.70;;
59960;SDS011;55902;-37.980;-63.602;2024-03-17T11:40:24;3.08;;;1.50;;
59960;SDS011;55902;-37.980;-63.602;2024-03-17T11:43:01;3.20;;;1.60;;
59960;SDS011;55902;-37.980;-63.602;2024-03-17T11:45:33;6.70;;;1.75;;
59960;SDS011;55902;-37.980;-63.602;2024-03-17T11:48:00;3.60;;;1.52;;
59960;SDS011;55902;-37.980;-63.602;2024-03-17T11:50:31;2.65;;;1.50;;
59960;SDS011;55902;-37.980;-63.602;2024-03-17T11:52:59;4.13;;;1.58;;
59960;SDS011;55902;-37.980;-63.602;2024-03-17T11:55:28;3.25;;;1.50;;
59960;SDS011;55902;-37.980;-63.602;2024-03-17T11:57:55;4.80;;;1.50;;
59960;SDS011;55902;-37.980;-63.602;2024-03-17T12:00:23;3.33;;;1.50;;
59960;SDS011;55902;-37.980;-63.602;2024-03-17T12:02:51;3.95;;;1.60;;
59960;SDS011;55902;-37.980;-63.602;2024-03-17T12:05:24;6.65;;;1.58;;
59960;SDS011;55902;-37.980;-63.602;2024-03-17T12:07:56;3.67;;;1.45;;
59960;SDS011;55902;-37.980;-63.602;2024-03-17T12:10:23;3.22;;;1.30;;
59960;SDS011;55902;-37.980;-63.602;2024-03-17T12:12:56;4.43;;;1.25;;
59960;SDS011;55902;-37.980;-63.602;2024-03-17T12:15:23;8.23;;;1.42;;
59960;SDS011;55902;-37.980;-63.602;2024-03-17T12:17:54;4.57;;;1.20;;
59960;SDS011;55902;-37.980;-63.602;2024-03-17T12:20:26;5.72;;;1.30;;
59960;SDS011;55902;-37.980;-63.602;2024-03-17T12:22:53;5.13;;;1.40;;
59960;SDS011;55902;-37.980;-63.602;2024-03-17T12:25:24;3.35;;;1.67;;
59960;SDS011;55902;-37.980;-63.602;2024-03-17T12:27:55;3.08;;;1.40;;
59960;SDS011;55902;-37.980;-63.602;2024-03-17T12:30:22;3.80;;;1.52;;
59960;SDS011;55902;-37.980;-63.602;2024-03-17T12:32:54;5.85;;;1.70;;
59960;SDS011;55902;-37.980;-63.602;2024-03-17T12:35:25;3.53;;;1.45;;
59960;SDS011;55902;-37.980;-63.602;2024-03-17T12:37:55;4.32;;;1.20;;
59960;SDS011;55902;-37.980;-63.602;2024-03-17T12:40:24;4.35;;;1.27;;
59960;SDS011;55902;-37.980;-63.602;2024-03-17T12:42:57;2.15;;;1.15;;
59960;SDS011;55902;-37.980;-63.602;2024-03-17T12:45:31;2.35;;;1.15;;
59960;SDS011;55902;-37.980;-63.602;2024-03-17T12:48:10;1.90;;;1.00;;
59960;SDS011;55902;-37.980;-63.602;2024-03-17T12:50:45;5.00;;;1.58;;
59960;SDS011;55902;-37.980;-63.602;2024-03-17T12:53:16;1.70;;;1.10;;
59960;SDS011;55902;-37.980;-63.602;2024-03-17T12:55:54;4.40;;;1.20;;
59960;SDS011;55902;-37.980;-63.602;2024-03-17T12:58:39;3.10;;;1.08;;
59960;SDS011;55902;-37.980;-63.602;2024-03-17T13:01:35;4.30;;;1.10;;
59960;SDS011;55902;-37.980;-63.602;2024-03-17T13:04:06;5.18;;;1.20;;
59960;SDS011;55902;-37.980;-63.602;2024-03-17T13:06:33;3.25;;;1.00;;
59960;SDS011;55902;-37.980;-63.602;2024-03-17T13:09:11;3.03;;;1.10;;
59960;SDS011;55902;-37.980;-63.602;2024-03-17T13:11:37;5.05;;;1.20;;
59960;SDS011;55902;-37.980;-63.602;2024-03-17T13:14:08;4.22;;;1.10;;
59960;SDS011;55902;-37.980;-63.602;2024-03-17T13:16:43;3.15;;;1.35;;
59960;SDS011;55902;-37.980;-63.602;2024-03-17T13:19:15;2.25;;;0.90;;
59960;SDS011;55902;-37.980;-63.602;2024-03-17T13:21:45;1.80;;;1.00;;
59960;SDS011;55902;-37.980;-63.602;2024-03-17T13:24:15;3.83;;;1.00;;
59960;SDS011;55902;-37.980;-63.602;2024-03-17T13:26:42;2.40;;;1.00;;
59960;SDS011;55902;-37.980;-63.602;2024-03-17T13:29:10;3.25;;;0.95;;
59960;SDS011;55902;-37.980;-63.602;2024-03-17T13:31:46;2.50;;;1.08;;
59960;SDS011;55902;-37.980;-63.602;2024-03-17T13:34:13;3.28;;;0.90;;
59960;SDS011;55902;-37.980;-63.602;2024-03-17T13:36:53;2.33;;;0.93;;
59960;SDS011;55902;-37.980;-63.602;2024-03-17T13:39:20;3.07;;;1.00;;
59960;SDS011;55902;-37.980;-63.602;2024-03-17T13:41:47;2.58;;;1.00;;
59960;SDS011;55902;-37.980;-63.602;2024-03-17T13:44:23;4.32;;;0.90;;
59960;SDS011;55902;-37.980;-63.602;2024-03-17T13:46:49;3.08;;;0.90;;
59960;SDS011;55902;-37.980;-63.602;2024-03-17T13:49:17;2.67;;;0.90;;
59960;SDS011;55902;-37.980;-63.602;2024-03-17T13:51:50;3.10;;;1.05;;
59960;SDS011;55902;-37.980;-63.602;2024-03-17T13:54:20;3.08;;;1.10;;
59960;SDS011;55902;-37.980;-63.602;2024-03-17T13:56:47;3.20;;;1.10;;
59960;SDS011;55902;-37.980;-63.602;2024-03-17T13:59:17;3.10;;;1.10;;
59960;SDS011;55902;-37.980;-63.602;2024-03-17T14:01:44;3.22;;;1.17;;
59960;SDS011;55902;-37.980;-63.602;2024-03-17T14:04:18;4.85;;;1.10;;
59960;SDS011;55902;-37.980;-63.602;2024-03-17T14:06:49;5.40;;;1.10;;
59960;SDS011;55902;-37.980;-63.602;2024-03-17T14:09:16;2.22;;;1.10;;
59960;SDS011;55902;-37.980;-63.602;2024-03-17T14:11:47;3.17;;;1.10;;
59960;SDS011;55902;-37.980;-63.602;2024-03-17T14:14:16;2.72;;;1.15;;
59960;SDS011;55902;-37.980;-63.602;2024-03-17T14:16:42;2.88;;;1.00;;
59960;SDS011;55902;-37.980;-63.602;2024-03-17T14:19:10;2.70;;;1.00;;
59960;SDS011;55902;-37.980;-63.602;2024-03-17T14:21:37;2.90;;;1.42;;
59960;SDS011;55902;-37.980;-63.602;2024-03-17T14:24:10;1.42;;;0.90;;
59960;SDS011;55902;-37.980;-63.602;2024-03-17T14:26:44;2.67;;;1.23;;
59960;SDS011;55902;-37.980;-63.602;2024-03-17T14:29:18;5.25;;;1.23;;
59960;SDS011;55902;-37.980;-63.602;2024-03-17T14:31:48;5.28;;;1.05;;
59960;SDS011;55902;-37.980;-63.602;2024-03-17T14:34:18;2.95;;;0.90;;
59960;SDS011;55902;-37.980;-63.602;2024-03-17T14:36:53;2.47;;;1.13;;
59960;SDS011;55902;-37.980;-63.602;2024-03-17T14:39:23;3.00;;;1.10;;
59960;SDS011;55902;-37.980;-63.602;2024-03-17T14:41:57;6.32;;;1.50;;
59960;SDS011;55902;-37.980;-63.602;2024-03-17T14:44:34;4.00;;;1.10;;
59960;SDS011;55902;-37.980;-63.602;2024-03-17T14:47:02;2.95;;;1.15;;
59960;SDS011;55902;-37.980;-63.602;2024-03-17T14:49:32;4.15;;;0.80;;
59960;SDS011;55902;-37.980;-63.602;2024-03-17T14:52:00;3.65;;;1.00;;
59960;SDS011;55902;-37.980;-63.602;2024-03-17T14:54:33;4.47;;;1.35;;
59960;SDS011;55902;-37.980;-63.602;2024-03-17T14:57:00;2.70;;;1.00;;
59960;SDS011;55902;-37.980;-63.602;2024-03-17T15:02:05;5.95;;;1.00;;
59960;SDS011;55902;-37.980;-63.602;2024-03-17T15:04:39;7.80;;;1.52;;
59960;SDS011;55902;-37.980;-63.602;2024-03-17T15:07:09;4.97;;;1.02;;
59960;SDS011;55902;-37.980;-63.602;2024-03-17T15:09:38;2.13;;;0.98;;
59960;SDS011;55902;-37.980;-63.602;2024-03-17T15:12:06;2.10;;;0.80;;
59960;SDS011;55902;-37.980;-63.602;2024-03-17T15:14:42;3.00;;;0.82;;
59960;SDS011;55902;-37.980;-63.602;2024-03-17T15:17:09;2.97;;;0.90;;
59960;SDS011;55902;-37.980;-63.602;2024-03-17T15:19:36;3.78;;;1.00;;
59960;SDS011;55902;-37.980;-63.602;2024-03-17T15:24:36;3.22;;;0.90;;
59960;SDS011;55902;-37.980;-63.602;2024-03-17T15:27:09;2.40;;;1.08;;
59960;SDS011;55902;-37.980;-63.602;2024-03-17T15:29:42;2.03;;;0.80;;
59960;SDS011;55902;-37.980;-63.602;2024-03-17T15:32:15;3.65;;;0.90;;
59960;SDS011;55902;-37.980;-63.602;2024-03-17T15:34:42;4.60;;;0.90;;
59960;SDS011;55902;-37.980;-63.602;2024-03-17T15:37:12;5.85;;;0.98;;
59960;SDS011;55902;-37.980;-63.602;2024-03-17T15:39:42;3.15;;;1.05;;
59960;SDS011;55902;-37.980;-63.602;2024-03-17T15:42:15;5.10;;;0.93;;
59960;SDS011;55902;-37.980;-63.602;2024-03-17T15:44:42;4.90;;;1.10;;
59960;SDS011;55902;-37.980;-63.602;2024-03-17T15:47:14;3.53;;;0.90;;
59960;SDS011;55902;-37.980;-63.602;2024-03-17T15:49:41;6.38;;;1.10;;
59960;SDS011;55902;-37.980;-63.602;2024-03-17T15:52:10;4.05;;;1.00;;
59960;SDS011;55902;-37.980;-63.602;2024-03-17T15:54:37;3.17;;;0.80;;
59960;SDS011;55902;-37.980;-63.602;2024-03-17T15:57:07;8.27;;;1.55;;
59960;SDS011;55902;-37.980;-63.602;2024-03-17T15:59:38;7.00;;;1.30;;
59960;SDS011;55902;-37.980;-63.602;2024-03-17T16:02:06;4.80;;;1.15;;
59960;SDS011;55902;-37.980;-63.602;2024-03-17T16:04:36;8.48;;;1.45;;
59960;SDS011;55902;-37.980;-63.602;2024-03-17T16:07:09;1.88;;;0.70;;
59960;SDS011;55902;-37.980;-63.602;2024-03-17T16:09:39;2.20;;;0.70;;
59960;SDS011;55902;-37.980;-63.602;2024-03-17T16:12:06;4.45;;;0.80;;
59960;SDS011;55902;-37.980;-63.602;2024-03-17T16:14:38;2.97;;;0.98;;
59960;SDS011;55902;-37.980;-63.602;2024-03-17T16:17:11;7.28;;;1.10;;
59960;SDS011;55902;-37.980;-63.602;2024-03-17T16:19:40;3.05;;;0.80;;
59960;SDS011;55902;-37.980;-63.602;2024-03-17T16:22:12;5.40;;;0.95;;
59960;SDS011;55902;-37.980;-63.602;2024-03-17T16:24:40;1.70;;;0.75;;
59960;SDS011;55902;-37.980;-63.602;2024-03-17T16:27:12;3.83;;;0.85;;
59960;SDS011;55902;-37.980;-63.602;2024-03-17T16:29:39;4.95;;;1.00;;
59960;SDS011;55902;-37.980;-63.602;2024-03-17T16:32:10;5.50;;;0.85;;
59960;SDS011;55902;-37.980;-63.602;2024-03-17T16:34:37;3.15;;;1.00;;
59960;SDS011;55902;-37.980;-63.602;2024-03-17T16:37:05;9.57;;;1.00;;
59960;SDS011;55902;-37.980;-63.602;2024-03-17T16:39:39;10.60;;;1.40;;
59960;SDS011;55902;-37.980;-63.602;2024-03-17T16:42:09;4.05;;;1.30;;
59960;SDS011;55902;-37.980;-63.602;2024-03-17T16:44:52;1.98;;;0.70;;
59960;SDS011;55902;-37.980;-63.602;2024-03-17T16:47:29;2.72;;;0.80;;
59960;SDS011;55902;-37.980;-63.602;2024-03-17T16:50:04;5.70;;;1.20;;
59960;SDS011;55902;-37.980;-63.602;2024-03-17T16:52:34;1.25;;;0.60;;
59960;SDS011;55902;-37.980;-63.602;2024-03-17T16:55:02;5.72;;;1.27;;
59960;SDS011;55902;-37.980;-63.602;2024-03-17T16:57:42;4.78;;;0.90;;
59960;SDS011;55902;-37.980;-63.602;2024-03-17T17:00:09;5.28;;;0.90;;
59960;SDS011;55902;-37.980;-63.602;2024-03-17T17:02:45;4.32;;;1.00;;
59960;SDS011;55902;-37.980;-63.602;2024-03-17T17:05:16;1.90;;;0.90;;
59960;SDS011;55902;-37.980;-63.602;2024-03-17T17:07:46;4.68;;;0.70;;
59960;SDS011;55902;-37.980;-63.602;2024-03-17T17:10:15;6.22;;;1.17;;
59960;SDS011;55902;-37.980;-63.602;2024-03-17T17:12:46;8.25;;;1.10;;
59960;SDS011;55902;-37.980;-63.602;2024-03-17T17:17:49;3.95;;;0.85;;
59960;SDS011;55902;-37.980;-63.602;2024-03-17T17:22:47;6.80;;;0.80;;
59960;SDS011;55902;-37.980;-63.602;2024-03-17T17:25:16;5.50;;;0.70;;
59960;SDS011;55902;-37.980;-63.602;2024-03-17T17:27:44;4.80;;;0.90;;
59960;SDS011;55902;-37.980;-63.602;2024-03-17T17:30:14;6.18;;;1.85;;
59960;SDS011;55902;-37.980;-63.602;2024-03-17T17:32:41;3.53;;;0.70;;
59960;SDS011;55902;-37.980;-63.602;2024-03-17T17:35:19;2.63;;;0.60;;
59960;SDS011;55902;-37.980;-63.602;2024-03-17T17:37:52;3.78;;;0.80;;
59960;SDS011;55902;-37.980;-63.602;2024-03-17T17:40:22;4.25;;;0.80;;
59960;SDS011;55902;-37.980;-63.602;2024-03-17T17:42:56;3.25;;;0.80;;
59960;SDS011;55902;-37.980;-63.602;2024-03-17T17:45:25;4.75;;;1.00;;
59960;SDS011;55902;-37.980;-63.602;2024-03-17T17:47:55;5.40;;;0.70;;
59960;SDS011;55902;-37.980;-63.602;2024-03-17T17:50:25;4.72;;;0.82;;
59960;SDS011;55902;-37.980;-63.602;2024-03-17T17:52:55;2.92;;;0.80;;
59960;SDS011;55902;-37.980;-63.602;2024-03-17T17:55:28;4.07;;;0.77;;
59960;SDS011;55902;-37.980;-63.602;2024-03-17T17:58:00;4.85;;;0.98;;
59960;SDS011;55902;-37.980;-63.602;2024-03-17T18:00:31;4.88;;;0.98;;
59960;SDS011;55902;-37.980;-63.602;2024-03-17T18:03:05;4.80;;;0.88;;
59960;SDS011;55902;-37.980;-63.602;2024-03-17T18:05:37;3.97;;;0.90;;
59960;SDS011;55902;-37.980;-63.602;2024-03-17T18:08:11;6.03;;;0.80;;
59960;SDS011;55902;-37.980;-63.602;2024-03-17T18:10:38;5.80;;;0.80;;
59960;SDS011;55902;-37.980;-63.602;2024-03-17T18:13:09;9.38;;;1.10;;
59960;SDS011;55902;-37.980;-63.602;2024-03-17T18:15:39;4.57;;;0.80;;
59960;SDS011;55902;-37.980;-63.602;2024-03-17T18:18:06;3.60;;;0.70;;
59960;SDS011;55902;-37.980;-63.602;2024-03-17T18:20:36;3.20;;;0.63;;
59960;SDS011;55902;-37.980;-63.602;2024-03-17T18:23:07;1.95;;;0.70;;
59960;SDS011;55902;-37.980;-63.602;2024-03-17T18:25:37;5.10;;;0.80;;
59960;SDS011;55902;-37.980;-63.602;2024-03-17T18:28:05;6.75;;;0.95;;
59960;SDS011;55902;-37.980;-63.602;2024-03-17T18:30:32;4.68;;;0.90;;
59960;SDS011;55902;-37.980;-63.602;2024-03-17T18:32:59;4.18;;;0.80;;
59960;SDS011;55902;-37.980;-63.602;2024-03-17T18:35:29;3.28;;;0.90;;
59960;SDS011;55902;-37.980;-63.602;2024-03-17T18:37:58;3.53;;;0.73;;
59960;SDS011;55902;-37.980;-63.602;2024-03-17T18:40:33;4.22;;;0.70;;
59960;SDS011;55902;-37.980;-63.602;2024-03-17T18:43:00;4.25;;;0.68;;
59960;SDS011;55902;-37.980;-63.602;2024-03-17T18:45:33;5.65;;;0.88;;
59960;SDS011;55902;-37.980;-63.602;2024-03-17T18:48:00;4.53;;;0.70;;
59960;SDS011;55902;-37.980;-63.602;2024-03-17T18:50:30;4.50;;;1.05;;
59960;SDS011;55902;-37.980;-63.602;2024-03-17T18:52:58;3.40;;;1.00;;
59960;SDS011;55902;-37.980;-63.602;2024-03-17T18:55:30;8.00;;;1.10;;
59960;SDS011;55902;-37.980;-63.602;2024-03-17T18:58:04;5.85;;;1.10;;
59960;SDS011;55902;-37.980;-63.602;2024-03-17T19:00:34;8.82;;;1.15;;
59960;SDS011;55902;-37.980;-63.602;2024-03-17T19:03:01;4.75;;;0.90;;
59960;SDS011;55902;-37.980;-63.602;2024-03-17T19:05:31;2.42;;;0.80;;
59960;SDS011;55902;-37.980;-63.602;2024-03-17T19:08:02;3.03;;;0.70;;
59960;SDS011;55902;-37.980;-63.602;2024-03-17T19:10:37;4.00;;;0.90;;
59960;SDS011;55902;-37.980;-63.602;2024-03-17T19:13:07;2.58;;;0.70;;
59960;SDS011;55902;-37.980;-63.602;2024-03-17T19:15:40;4.35;;;0.98;;
59960;SDS011;55902;-37.980;-63.602;2024-03-17T19:18:07;2.65;;;0.70;;
59960;SDS011;55902;-37.980;-63.602;2024-03-17T19:20:35;2.05;;;0.70;;
59960;SDS011;55902;-37.980;-63.602;2024-03-17T19:23:05;1.30;;;0.70;;
59960;SDS011;55902;-37.980;-63.602;2024-03-17T19:25:32;3.22;;;0.93;;
59960;SDS011;55902;-37.980;-63.602;2024-03-17T19:28:03;4.35;;;0.75;;
59960;SDS011;55902;-37.980;-63.602;2024-03-17T19:30:30;3.13;;;0.73;;
59960;SDS011;55902;-37.980;-63.602;2024-03-17T19:33:03;3.70;;;0.77;;
59960;SDS011;55902;-37.980;-63.602;2024-03-17T19:35:35;3.33;;;0.80;;
59960;SDS011;55902;-37.980;-63.602;2024-03-17T19:38:05;1.77;;;0.65;;
59960;SDS011;55902;-37.980;-63.602;2024-03-17T19:40:32;4.50;;;0.82;;
59960;SDS011;55902;-37.980;-63.602;2024-03-17T19:48:35;4.45;;;1.05;;
59960;SDS011;55902;-37.980;-63.602;2024-03-17T19:51:06;3.83;;;0.80;;
59960;SDS011;55902;-37.980;-63.602;2024-03-17T19:53:40;2.28;;;0.98;;
59960;SDS011;55902;-37.980;-63.602;2024-03-17T19:56:15;1.85;;;0.60;;
59960;SDS011;55902;-37.980;-63.602;2024-03-17T19:58:49;2.13;;;0.65;;
59960;SDS011;55902;-37.980;-63.602;2024-03-17T20:01:19;2.53;;;0.60;;
59960;SDS011;55902;-37.980;-63.602;2024-03-17T20:03:47;1.60;;;0.95;;
59960;SDS011;55902;-37.980;-63.602;2024-03-17T20:06:21;4.25;;;0.65;;
59960;SDS011;55902;-37.980;-63.602;2024-03-17T20:08:50;2.92;;;0.73;;
59960;SDS011;55902;-37.980;-63.602;2024-03-17T20:11:22;1.60;;;0.70;;
59960;SDS011;55902;-37.980;-63.602;2024-03-17T20:13:52;4.13;;;0.90;;
59960;SDS011;55902;-37.980;-63.602;2024-03-17T20:16:23;4.88;;;0.80;;
59960;SDS011;55902;-37.980;-63.602;2024-03-17T20:18:57;3.75;;;0.70;;
59960;SDS011;55902;-37.980;-63.602;2024-03-17T20:21:27;4.45;;;0.80;;
59960;SDS011;55902;-37.980;-63.602;2024-03-17T20:23:58;2.28;;;0.70;;
59960;SDS011;55902;-37.980;-63.602;2024-03-17T20:26:28;2.65;;;0.70;;
59960;SDS011;55902;-37.980;-63.602;2024-03-17T20:29:04;3.10;;;0.80;;
59960;SDS011;55902;-37.980;-63.602;2024-03-17T20:31:34;2.15;;;0.82;;
59960;SDS011;55902;-37.980;-63.602;2024-03-17T20:36:32;4.75;;;0.93;;
59960;SDS011;55902;-37.980;-63.602;2024-03-17T20:38:59;2.55;;;0.98;;
59960;SDS011;55902;-37.980;-63.602;2024-03-17T20:41:26;1.63;;;0.70;;
59960;SDS011;55902;-37.980;-63.602;2024-03-17T20:43:59;3.33;;;0.80;;
59960;SDS011;55902;-37.980;-63.602;2024-03-17T20:46:30;2.15;;;0.73;;
59960;SDS011;55902;-37.980;-63.602;2024-03-17T20:48:57;2.97;;;0.77;;
59960;SDS011;55902;-37.980;-63.602;2024-03-17T20:51:28;2.83;;;0.80;;
59960;SDS011;55902;-37.980;-63.602;2024-03-17T20:53:56;1.17;;;0.70;;
59960;SDS011;55902;-37.980;-63.602;2024-03-17T20:56:23;3.00;;;0.77;;
59960;SDS011;55902;-37.980;-63.602;2024-03-17T20:58:52;1.95;;;0.80;;